sensor_id;sensor_type;location;lat;lon;timestamp;P1;durP1;ratioP1;P2;durP2;ratioP2
43676;SDS011;29275;48.800;18.102;2022-09-09T00:00:49;2.03;;;0.60;;
43676;SDS011;29275;48.800;18.102;2022-09-09T00:07:03;1.00;;;0.47;;
43676;SDS011;29275;48.800;18.102;2022-09-09T00:13:19;4.30;;;0.50;;
43676;SDS011;29275;48.800;18.102;2022-09-09T00:16:30;1.85;;;0.63;;
43676;SDS011;29275;48.800;18.102;2022-09-09T00:19:49;1.30;;;0.57;;
43676;SDS011;29275;48.800;18.102;2022-09-09T00:23:03;0.98;;;0.60;;
43676;SDS011;29275;48.800;18.102;2022-09-09T00:26:22;0.65;;;0.40;;
43676;SDS011;29275;48.800;18.102;2022-09-09T00:29:47;2.78;;;0.70;;
43676;SDS011;29275;48.800;18.102;2022-09-09T00:33:00;1.87;;;0.60;;
43676;SDS011;29275;48.800;18.102;2022-09-09T00:36:27;1.73;;;0.68;;
43676;SDS011;29275;48.800;18.102;2022-09-09T00:39:57;2.55;;;0.63;;
43676;SDS011;29275;48.800;18.102;2022-09-09T00:46:45;0.90;;;0.50;;
43676;SDS011;29275;48.800;18.102;2022-09-09T00:57:28;1.02;;;0.43;;
43676;SDS011;29275;48.800;18.102;2022-09-09T01:00:33;1.08;;;0.60;;
43676;SDS011;29275;48.800;18.102;2022-09-09T01:03:55;4.53;;;0.70;;
43676;SDS011;29275;48.800;18.102;2022-09-09T01:07:18;2.05;;;1.10;;
43676;SDS011;29275;48.800;18.102;2022-09-09T01:10:39;1.95;;;0.82;;
43676;SDS011;29275;48.800;18.102;2022-09-09T01:25:01;3.65;;;0.98;;
43676;SDS011;29275;48.800;18.102;2022-09-09T01:28:27;1.63;;;0.75;;
43676;SDS011;29275;48.800;18.102;2022-09-09T01:31:56;1.48;;;0.80;;
43676;SDS011;29275;48.800;18.102;2022-09-09T01:35:02;1.70;;;0.90;;
43676;SDS011;29275;48.800;18.102;2022-09-09T01:38:22;1.58;;;1.02;;
43676;SDS011;29275;48.800;18.102;2022-09-09T01:41:50;2.08;;;1.20;;
43676;SDS011;29275;48.800;18.102;2022-09-09T01:45:11;6.25;;;1.10;;
43676;SDS011;29275;48.800;18.102;2022-09-09T01:48:13;1.63;;;0.82;;
43676;SDS011;29275;48.800;18.102;2022-09-09T01:51:25;1.58;;;0.98;;
43676;SDS011;29275;48.800;18.102;2022-09-09T01:54:35;1.67;;;1.00;;
43676;SDS011;29275;48.800;18.102;2022-09-09T01:58:07;2.08;;;0.88;;
43676;SDS011;29275;48.800;18.102;2022-09-09T02:06:00;2.05;;;1.27;;
43676;SDS011;29275;48.800;18.102;2022-09-09T02:09:14;2.22;;;1.40;;
43676;SDS011;29275;48.800;18.102;2022-09-09T02:12:19;5.43;;;1.65;;
43676;SDS011;29275;48.800;18.102;2022-09-09T02:16:12;2.10;;;1.08;;
43676;SDS011;29275;48.800;18.102;2022-09-09T02:22:23;3.83;;;1.30;;
43676;SDS011;29275;48.800;18.102;2022-09-09T02:25:28;4.80;;;1.92;;
43676;SDS011;29275;48.800;18.102;2022-09-09T02:28:42;5.25;;;1.77;;
43676;SDS011;29275;48.800;18.102;2022-09-09T02:31:45;4.97;;;1.50;;
43676;SDS011;29275;48.800;18.102;2022-09-09T02:34:58;2.78;;;1.50;;
43676;SDS011;29275;48.800;18.102;2022-09-09T02:38:07;4.97;;;1.48;;
43676;SDS011;29275;48.800;18.102;2022-09-09T02:41:14;2.60;;;1.50;;
43676;SDS011;29275;48.800;18.102;2022-09-09T02:44:17;2.35;;;1.48;;
43676;SDS011;29275;48.800;18.102;2022-09-09T02:57:06;6.32;;;1.95;;
43676;SDS011;29275;48.800;18.102;2022-09-09T03:00:21;3.75;;;2.38;;
43676;SDS011;29275;48.800;18.102;2022-09-09T03:03:26;3.13;;;1.50;;
43676;SDS011;29275;48.800;18.102;2022-09-09T03:06:29;3.45;;;1.85;;
43676;SDS011;29275;48.800;18.102;2022-09-09T03:09:41;6.38;;;1.83;;
43676;SDS011;29275;48.800;18.102;2022-09-09T03:12:44;3.38;;;1.60;;
43676;SDS011;29275;48.800;18.102;2022-09-09T03:15:47;2.53;;;1.63;;
43676;SDS011;29275;48.800;18.102;2022-09-09T03:18:54;3.30;;;1.63;;
43676;SDS011;29275;48.800;18.102;2022-09-09T03:21:57;3.10;;;1.40;;
43676;SDS011;29275;48.800;18.102;2022-09-09T03:24:59;1.75;;;0.98;;
43676;SDS011;29275;48.800;18.102;2022-09-09T03:28:02;2.78;;;1.60;;
43676;SDS011;29275;48.800;18.102;2022-09-09T03:31:07;2.88;;;1.02;;
43676;SDS011;29275;48.800;18.102;2022-09-09T03:34:18;3.25;;;1.40;;
43676;SDS011;29275;48.800;18.102;2022-09-09T03:37:20;2.10;;;1.30;;
43676;SDS011;29275;48.800;18.102;2022-09-09T03:40:25;2.08;;;1.30;;
43676;SDS011;29275;48.800;18.102;2022-09-09T03:43:28;2.10;;;1.30;;
43676;SDS011;29275;48.800;18.102;2022-09-09T03:46:31;2.90;;;1.38;;
43676;SDS011;29275;48.800;18.102;2022-09-09T03:49:37;2.85;;;1.40;;
43676;SDS011;29275;48.800;18.102;2022-09-09T03:53:49;1.92;;;1.10;;
43676;SDS011;29275;48.800;18.102;2022-09-09T03:57:34;1.95;;;1.15;;
43676;SDS011;29275;48.800;18.102;2022-09-09T04:06:14;1.98;;;1.20;;
43676;SDS011;29275;48.800;18.102;2022-09-09T04:10:00;2.13;;;1.45;;
43676;SDS011;29275;48.800;18.102;2022-09-09T04:13:28;3.83;;;1.40;;
43676;SDS011;29275;48.800;18.102;2022-09-09T04:16:57;5.65;;;1.50;;
43676;SDS011;29275;48.800;18.102;2022-09-09T04:20:53;4.07;;;1.40;;
43676;SDS011;29275;48.800;18.102;2022-09-09T04:23:58;2.13;;;1.33;;
43676;SDS011;29275;48.800;18.102;2022-09-09T04:27:01;4.80;;;1.20;;
43676;SDS011;29275;48.800;18.102;2022-09-09T04:30:13;2.13;;;1.05;;
43676;SDS011;29275;48.800;18.102;2022-09-09T04:34:00;2.23;;;1.03;;
43676;SDS011;29275;48.800;18.102;2022-09-09T04:38:00;1.65;;;1.27;;
43676;SDS011;29275;48.800;18.102;2022-09-09T04:45:00;2.05;;;1.23;;
43676;SDS011;29275;48.800;18.102;2022-09-09T04:48:42;3.78;;;1.40;;
43676;SDS011;29275;48.800;18.102;2022-09-09T04:52:10;2.08;;;1.30;;
43676;SDS011;29275;48.800;18.102;2022-09-09T04:56:14;3.50;;;1.40;;
43676;SDS011;29275;48.800;18.102;2022-09-09T04:59:54;2.28;;;1.48;;
43676;SDS011;29275;48.800;18.102;2022-09-09T05:03:24;3.55;;;2.10;;
43676;SDS011;29275;48.800;18.102;2022-09-09T05:06:33;3.67;;;2.00;;
43676;SDS011;29275;48.800;18.102;2022-09-09T05:09:39;5.13;;;2.30;;
43676;SDS011;29275;48.800;18.102;2022-09-09T05:13:03;3.33;;;2.10;;
43676;SDS011;29275;48.800;18.102;2022-09-09T05:16:06;6.88;;;2.22;;
43676;SDS011;29275;48.800;18.102;2022-09-09T05:19:08;4.22;;;2.50;;
43676;SDS011;29275;48.800;18.102;2022-09-09T05:22:21;4.13;;;2.30;;
43676;SDS011;29275;48.800;18.102;2022-09-09T05:25:27;3.78;;;2.30;;
43676;SDS011;29275;48.800;18.102;2022-09-09T05:28:30;6.43;;;2.75;;
43676;SDS011;29275;48.800;18.102;2022-09-09T05:31:33;3.63;;;2.40;;
43676;SDS011;29275;48.800;18.102;2022-09-09T05:34:38;4.43;;;2.75;;
43676;SDS011;29275;48.800;18.102;2022-09-09T05:37:41;4.25;;;2.63;;
43676;SDS011;29275;48.800;18.102;2022-09-09T05:40:47;3.75;;;2.83;;
43676;SDS011;29275;48.800;18.102;2022-09-09T05:43:49;6.83;;;2.70;;
43676;SDS011;29275;48.800;18.102;2022-09-09T05:46:52;4.65;;;2.85;;
43676;SDS011;29275;48.800;18.102;2022-09-09T05:49:54;6.78;;;3.30;;
43676;SDS011;29275;48.800;18.102;2022-09-09T05:52:57;4.57;;;3.30;;
43676;SDS011;29275;48.800;18.102;2022-09-09T05:56:06;4.80;;;3.13;;
43676;SDS011;29275;48.800;18.102;2022-09-09T05:59:11;3.97;;;2.70;;
43676;SDS011;29275;48.800;18.102;2022-09-09T06:02:14;5.35;;;3.08;;
43676;SDS011;29275;48.800;18.102;2022-09-09T06:05:16;4.43;;;2.58;;
43676;SDS011;29275;48.800;18.102;2022-09-09T06:08:18;5.55;;;3.10;;
43676;SDS011;29275;48.800;18.102;2022-09-09T06:11:21;4.40;;;2.90;;
43676;SDS011;29275;48.800;18.102;2022-09-09T06:14:24;5.07;;;2.90;;
43676;SDS011;29275;48.800;18.102;2022-09-09T06:17:35;3.85;;;2.50;;
43676;SDS011;29275;48.800;18.102;2022-09-09T06:24:13;4.82;;;2.85;;
43676;SDS011;29275;48.800;18.102;2022-09-09T06:27:27;7.43;;;3.28;;
43676;SDS011;29275;48.800;18.102;2022-09-09T06:30:34;6.80;;;3.40;;
43676;SDS011;29275;48.800;18.102;2022-09-09T06:33:37;4.82;;;3.03;;
43676;SDS011;29275;48.800;18.102;2022-09-09T06:36:43;4.72;;;3.42;;
43676;SDS011;29275;48.800;18.102;2022-09-09T06:39:46;11.70;;;3.28;;
43676;SDS011;29275;48.800;18.102;2022-09-09T06:42:48;4.75;;;3.13;;
43676;SDS011;29275;48.800;18.102;2022-09-09T06:46:17;4.80;;;2.75;;
43676;SDS011;29275;48.800;18.102;2022-09-09T06:49:25;6.18;;;2.83;;
43676;SDS011;29275;48.800;18.102;2022-09-09T06:52:27;6.20;;;2.58;;
43676;SDS011;29275;48.800;18.102;2022-09-09T06:55:30;5.05;;;2.88;;
43676;SDS011;29275;48.800;18.102;2022-09-09T06:58:32;3.65;;;2.45;;
43676;SDS011;29275;48.800;18.102;2022-09-09T07:01:40;3.92;;;2.25;;
43676;SDS011;29275;48.800;18.102;2022-09-09T07:04:46;4.10;;;2.58;;
43676;SDS011;29275;48.800;18.102;2022-09-09T07:07:48;4.40;;;2.55;;
43676;SDS011;29275;48.800;18.102;2022-09-09T07:10:53;3.97;;;2.35;;
43676;SDS011;29275;48.800;18.102;2022-09-09T07:13:56;4.90;;;3.00;;
43676;SDS011;29275;48.800;18.102;2022-09-09T07:17:00;6.63;;;3.03;;
43676;SDS011;29275;48.800;18.102;2022-09-09T07:20:07;5.00;;;3.25;;
43676;SDS011;29275;48.800;18.102;2022-09-09T07:23:10;3.95;;;2.70;;
43676;SDS011;29275;48.800;18.102;2022-09-09T07:26:17;5.18;;;2.95;;
43676;SDS011;29275;48.800;18.102;2022-09-09T07:29:29;5.57;;;3.10;;
43676;SDS011;29275;48.800;18.102;2022-09-09T07:36:44;6.97;;;4.22;;
43676;SDS011;29275;48.800;18.102;2022-09-09T07:40:06;6.03;;;3.75;;
43676;SDS011;29275;48.800;18.102;2022-09-09T07:43:43;8.93;;;4.95;;
43676;SDS011;29275;48.800;18.102;2022-09-09T07:47:10;5.63;;;3.70;;
43676;SDS011;29275;48.800;18.102;2022-09-09T07:50:23;7.13;;;3.70;;
43676;SDS011;29275;48.800;18.102;2022-09-09T07:54:15;7.28;;;4.07;;
43676;SDS011;29275;48.800;18.102;2022-09-09T07:58:35;5.82;;;4.03;;
43676;SDS011;29275;48.800;18.102;2022-09-09T08:01:49;6.97;;;3.35;;
43676;SDS011;29275;48.800;18.102;2022-09-09T08:05:02;6.22;;;3.25;;
43676;SDS011;29275;48.800;18.102;2022-09-09T08:08:11;4.13;;;2.78;;
43676;SDS011;29275;48.800;18.102;2022-09-09T08:11:14;7.25;;;3.70;;
43676;SDS011;29275;48.800;18.102;2022-09-09T08:14:19;6.70;;;4.23;;
43676;SDS011;29275;48.800;18.102;2022-09-09T08:17:23;6.63;;;3.75;;
43676;SDS011;29275;48.800;18.102;2022-09-09T08:20:25;5.47;;;3.88;;
43676;SDS011;29275;48.800;18.102;2022-09-09T08:23:29;6.95;;;3.40;;
43676;SDS011;29275;48.800;18.102;2022-09-09T08:26:33;6.38;;;3.38;;
43676;SDS011;29275;48.800;18.102;2022-09-09T08:29:37;4.05;;;3.05;;
43676;SDS011;29275;48.800;18.102;2022-09-09T08:32:51;3.63;;;2.17;;
43676;SDS011;29275;48.800;18.102;2022-09-09T08:35:56;10.57;;;2.60;;
43676;SDS011;29275;48.800;18.102;2022-09-09T08:39:34;3.00;;;2.30;;
43676;SDS011;29275;48.800;18.102;2022-09-09T08:42:49;4.80;;;2.10;;
43676;SDS011;29275;48.800;18.102;2022-09-09T08:46:30;3.95;;;2.03;;
43676;SDS011;29275;48.800;18.102;2022-09-09T08:50:18;3.25;;;2.00;;
43676;SDS011;29275;48.800;18.102;2022-09-09T08:53:35;1.73;;;0.90;;
43676;SDS011;29275;48.800;18.102;2022-09-09T08:56:40;3.70;;;1.50;;
43676;SDS011;29275;48.800;18.102;2022-09-09T08:59:42;1.67;;;1.15;;
43676;SDS011;29275;48.800;18.102;2022-09-09T09:12:45;1.90;;;1.27;;
43676;SDS011;29275;48.800;18.102;2022-09-09T09:16:00;2.13;;;1.50;;
43676;SDS011;29275;48.800;18.102;2022-09-09T09:19:04;4.40;;;1.60;;
43676;SDS011;29275;48.800;18.102;2022-09-09T09:22:16;2.60;;;1.42;;
43676;SDS011;29275;48.800;18.102;2022-09-09T09:25:32;2.30;;;1.60;;
43676;SDS011;29275;48.800;18.102;2022-09-09T09:28:37;1.70;;;1.30;;
43676;SDS011;29275;48.800;18.102;2022-09-09T09:31:51;1.83;;;1.33;;
43676;SDS011;29275;48.800;18.102;2022-09-09T09:34:57;2.90;;;1.30;;
43676;SDS011;29275;48.800;18.102;2022-09-09T09:38:00;1.52;;;0.95;;
43676;SDS011;29275;48.800;18.102;2022-09-09T09:41:37;1.80;;;1.00;;
43676;SDS011;29275;48.800;18.102;2022-09-09T09:44:43;1.45;;;0.90;;
43676;SDS011;29275;48.800;18.102;2022-09-09T09:48:03;1.75;;;1.25;;
43676;SDS011;29275;48.800;18.102;2022-09-09T09:51:11;1.45;;;1.10;;
43676;SDS011;29275;48.800;18.102;2022-09-09T09:54:23;1.80;;;1.10;;
43676;SDS011;29275;48.800;18.102;2022-09-09T09:57:34;1.33;;;0.88;;
43676;SDS011;29275;48.800;18.102;2022-09-09T10:00:47;1.65;;;0.95;;
43676;SDS011;29275;48.800;18.102;2022-09-09T10:03:57;1.42;;;0.90;;
43676;SDS011;29275;48.800;18.102;2022-09-09T10:07:12;1.58;;;0.82;;
43676;SDS011;29275;48.800;18.102;2022-09-09T10:10:22;1.25;;;0.70;;
43676;SDS011;29275;48.800;18.102;2022-09-09T10:27:24;2.30;;;0.90;;
43676;SDS011;29275;48.800;18.102;2022-09-09T10:30:41;1.20;;;0.70;;
43676;SDS011;29275;48.800;18.102;2022-09-09T10:33:50;2.17;;;0.50;;
43676;SDS011;29275;48.800;18.102;2022-09-09T10:36:55;2.42;;;0.68;;
43676;SDS011;29275;48.800;18.102;2022-09-09T10:54:01;2.42;;;0.80;;
43676;SDS011;29275;48.800;18.102;2022-09-09T10:57:35;0.98;;;0.60;;
43676;SDS011;29275;48.800;18.102;2022-09-09T11:00:45;1.75;;;0.75;;
43676;SDS011;29275;48.800;18.102;2022-09-09T11:03:51;0.77;;;0.45;;
43676;SDS011;29275;48.800;18.102;2022-09-09T11:06:57;0.70;;;0.45;;
43676;SDS011;29275;48.800;18.102;2022-09-09T11:10:01;1.15;;;0.50;;
43676;SDS011;29275;48.800;18.102;2022-09-09T11:13:07;1.55;;;0.63;;
43676;SDS011;29275;48.800;18.102;2022-09-09T11:19:54;1.75;;;0.60;;
43676;SDS011;29275;48.800;18.102;2022-09-09T11:25:59;0.60;;;0.40;;
43676;SDS011;29275;48.800;18.102;2022-09-09T11:29:09;1.25;;;0.57;;
43676;SDS011;29275;48.800;18.102;2022-09-09T11:43:31;0.68;;;0.50;;
43676;SDS011;29275;48.800;18.102;2022-09-09T11:46:49;0.68;;;0.55;;
43676;SDS011;29275;48.800;18.102;2022-09-09T11:49:53;1.15;;;0.47;;
43676;SDS011;29275;48.800;18.102;2022-09-09T11:53:14;0.60;;;0.50;;
43676;SDS011;29275;48.800;18.102;2022-09-09T11:56:34;1.38;;;0.65;;
43676;SDS011;29275;48.800;18.102;2022-09-09T11:59:50;1.40;;;0.70;;
43676;SDS011;29275;48.800;18.102;2022-09-09T12:02:56;1.88;;;0.57;;
43676;SDS011;29275;48.800;18.102;2022-09-09T12:05:58;0.90;;;0.45;;
43676;SDS011;29275;48.800;18.102;2022-09-09T12:09:08;1.17;;;0.50;;
43676;SDS011;29275;48.800;18.102;2022-09-09T12:12:27;4.15;;;0.90;;
43676;SDS011;29275;48.800;18.102;2022-09-09T12:15:30;1.35;;;0.80;;
43676;SDS011;29275;48.800;18.102;2022-09-09T12:18:36;0.77;;;0.60;;
43676;SDS011;29275;48.800;18.102;2022-09-09T12:25:49;1.00;;;0.60;;
43676;SDS011;29275;48.800;18.102;2022-09-09T12:32:13;1.52;;;0.60;;
43676;SDS011;29275;48.800;18.102;2022-09-09T12:35:24;0.80;;;0.60;;
43676;SDS011;29275;48.800;18.102;2022-09-09T12:38:40;0.77;;;0.55;;
43676;SDS011;29275;48.800;18.102;2022-09-09T12:41:52;0.75;;;0.50;;
43676;SDS011;29275;48.800;18.102;2022-09-09T12:44:59;2.90;;;0.60;;
43676;SDS011;29275;48.800;18.102;2022-09-09T12:48:06;0.80;;;0.60;;
43676;SDS011;29275;48.800;18.102;2022-09-09T12:51:21;3.55;;;0.80;;
43676;SDS011;29275;48.800;18.102;2022-09-09T12:54:27;1.02;;;0.60;;
43676;SDS011;29275;48.800;18.102;2022-09-09T12:57:34;0.90;;;0.60;;
43676;SDS011;29275;48.800;18.102;2022-09-09T13:00:38;0.75;;;0.63;;
43676;SDS011;29275;48.800;18.102;2022-09-09T13:03:54;1.70;;;0.90;;
43676;SDS011;29275;48.800;18.102;2022-09-09T13:07:07;1.33;;;0.70;;
43676;SDS011;29275;48.800;18.102;2022-09-09T13:10:20;1.80;;;0.50;;
43676;SDS011;29275;48.800;18.102;2022-09-09T13:13:39;1.30;;;0.53;;
43676;SDS011;29275;48.800;18.102;2022-09-09T13:16:42;1.23;;;0.60;;
43676;SDS011;29275;48.800;18.102;2022-09-09T13:19:44;1.55;;;0.70;;
43676;SDS011;29275;48.800;18.102;2022-09-09T13:22:52;0.90;;;0.60;;
43676;SDS011;29275;48.800;18.102;2022-09-09T13:25:56;1.00;;;0.70;;
43676;SDS011;29275;48.800;18.102;2022-09-09T13:29:18;1.27;;;0.80;;
43676;SDS011;29275;48.800;18.102;2022-09-09T13:32:20;3.92;;;0.90;;
43676;SDS011;29275;48.800;18.102;2022-09-09T13:35:23;1.10;;;0.70;;
43676;SDS011;29275;48.800;18.102;2022-09-09T13:38:27;2.33;;;0.55;;
43676;SDS011;29275;48.800;18.102;2022-09-09T13:41:35;1.42;;;0.50;;
43676;SDS011;29275;48.800;18.102;2022-09-09T13:44:38;1.05;;;0.60;;
43676;SDS011;29275;48.800;18.102;2022-09-09T13:47:41;1.73;;;0.68;;
43676;SDS011;29275;48.800;18.102;2022-09-09T13:50:43;2.40;;;0.73;;
43676;SDS011;29275;48.800;18.102;2022-09-09T13:53:56;3.42;;;0.77;;
43676;SDS011;29275;48.800;18.102;2022-09-09T13:56:59;1.10;;;0.60;;
43676;SDS011;29275;48.800;18.102;2022-09-09T14:00:02;0.70;;;0.50;;
43676;SDS011;29275;48.800;18.102;2022-09-09T14:03:06;1.10;;;0.60;;
43676;SDS011;29275;48.800;18.102;2022-09-09T14:06:10;1.00;;;0.60;;
43676;SDS011;29275;48.800;18.102;2022-09-09T14:09:13;1.45;;;0.60;;
43676;SDS011;29275;48.800;18.102;2022-09-09T14:12:17;1.67;;;0.88;;
43676;SDS011;29275;48.800;18.102;2022-09-09T14:15:19;0.75;;;0.50;;
43676;SDS011;29275;48.800;18.102;2022-09-09T14:18:23;0.77;;;0.50;;
43676;SDS011;29275;48.800;18.102;2022-09-09T14:21:27;1.13;;;0.50;;
43676;SDS011;29275;48.800;18.102;2022-09-09T14:24:29;1.27;;;0.60;;
43676;SDS011;29275;48.800;18.102;2022-09-09T14:27:31;1.80;;;0.68;;
43676;SDS011;29275;48.800;18.102;2022-09-09T14:30:34;3.67;;;0.80;;
43676;SDS011;29275;48.800;18.102;2022-09-09T14:33:36;1.20;;;0.60;;
43676;SDS011;29275;48.800;18.102;2022-09-09T14:36:38;1.42;;;0.50;;
43676;SDS011;29275;48.800;18.102;2022-09-09T14:39:40;2.70;;;0.70;;
43676;SDS011;29275;48.800;18.102;2022-09-09T14:42:48;0.52;;;0.40;;
43676;SDS011;29275;48.800;18.102;2022-09-09T14:45:50;0.98;;;0.52;;
43676;SDS011;29275;48.800;18.102;2022-09-09T14:48:52;1.50;;;0.45;;
43676;SDS011;29275;48.800;18.102;2022-09-09T14:51:55;0.80;;;0.40;;
43676;SDS011;29275;48.800;18.102;2022-09-09T14:54:57;5.68;;;0.70;;
43676;SDS011;29275;48.800;18.102;2022-09-09T14:57:59;0.93;;;0.50;;
43676;SDS011;29275;48.800;18.102;2022-09-09T15:01:05;0.77;;;0.40;;
43676;SDS011;29275;48.800;18.102;2022-09-09T15:04:10;0.50;;;0.40;;
43676;SDS011;29275;48.800;18.102;2022-09-09T15:07:13;1.00;;;0.40;;
43676;SDS011;29275;48.800;18.102;2022-09-09T15:10:15;1.85;;;0.73;;
43676;SDS011;29275;48.800;18.102;2022-09-09T15:13:18;0.95;;;0.50;;
43676;SDS011;29275;48.800;18.102;2022-09-09T15:16:22;3.58;;;0.60;;
43676;SDS011;29275;48.800;18.102;2022-09-09T15:19:25;0.45;;;0.30;;
43676;SDS011;29275;48.800;18.102;2022-09-09T15:22:27;1.38;;;0.43;;
43676;SDS011;29275;48.800;18.102;2022-09-09T15:25:29;1.25;;;0.40;;
43676;SDS011;29275;48.800;18.102;2022-09-09T15:28:35;1.75;;;0.57;;
43676;SDS011;29275;48.800;18.102;2022-09-09T15:31:41;2.85;;;0.70;;
43676;SDS011;29275;48.800;18.102;2022-09-09T15:34:43;0.90;;;0.40;;
43676;SDS011;29275;48.800;18.102;2022-09-09T15:37:45;1.05;;;0.60;;
43676;SDS011;29275;48.800;18.102;2022-09-09T15:40:52;0.70;;;0.50;;
43676;SDS011;29275;48.800;18.102;2022-09-09T15:43:56;1.35;;;0.55;;
43676;SDS011;29275;48.800;18.102;2022-09-09T15:46:58;2.80;;;0.70;;
43676;SDS011;29275;48.800;18.102;2022-09-09T15:50:00;3.92;;;0.65;;
43676;SDS011;29275;48.800;18.102;2022-09-09T15:53:02;10.52;;;0.77;;
43676;SDS011;29275;48.800;18.102;2022-09-09T15:56:05;0.65;;;0.45;;
43676;SDS011;29275;48.800;18.102;2022-09-09T15:59:10;1.20;;;0.50;;
43676;SDS011;29275;48.800;18.102;2022-09-09T16:02:12;1.00;;;0.50;;
43676;SDS011;29275;48.800;18.102;2022-09-09T16:05:14;4.35;;;0.60;;
43676;SDS011;29275;48.800;18.102;2022-09-09T16:08:17;6.82;;;0.50;;
43676;SDS011;29275;48.800;18.102;2022-09-09T16:11:21;0.82;;;0.47;;
43676;SDS011;29275;48.800;18.102;2022-09-09T16:14:26;1.58;;;0.60;;
43676;SDS011;29275;48.800;18.102;2022-09-09T16:17:28;0.98;;;0.60;;
43676;SDS011;29275;48.800;18.102;2022-09-09T16:20:30;4.70;;;0.90;;
43676;SDS011;29275;48.800;18.102;2022-09-09T16:23:34;1.30;;;0.80;;
43676;SDS011;29275;48.800;18.102;2022-09-09T16:26:38;0.98;;;0.60;;
43676;SDS011;29275;48.800;18.102;2022-09-09T16:29:41;6.68;;;0.93;;
43676;SDS011;29275;48.800;18.102;2022-09-09T16:32:43;1.30;;;0.60;;
43676;SDS011;29275;48.800;18.102;2022-09-09T16:35:45;3.45;;;0.75;;
43676;SDS011;29275;48.800;18.102;2022-09-09T16:38:51;1.42;;;0.80;;
43676;SDS011;29275;48.800;18.102;2022-09-09T16:41:55;1.13;;;0.68;;
43676;SDS011;29275;48.800;18.102;2022-09-09T16:44:58;2.20;;;0.88;;
43676;SDS011;29275;48.800;18.102;2022-09-09T16:48:00;4.95;;;0.75;;
43676;SDS011;29275;48.800;18.102;2022-09-09T16:51:04;2.20;;;1.30;;
43676;SDS011;29275;48.800;18.102;2022-09-09T16:54:08;2.97;;;1.00;;
43676;SDS011;29275;48.800;18.102;2022-09-09T16:57:11;3.83;;;1.15;;
43676;SDS011;29275;48.800;18.102;2022-09-09T17:00:12;1.83;;;1.17;;
43676;SDS011;29275;48.800;18.102;2022-09-09T17:03:15;4.60;;;1.23;;
43676;SDS011;29275;48.800;18.102;2022-09-09T17:06:17;2.53;;;1.30;;
43676;SDS011;29275;48.800;18.102;2022-09-09T17:09:20;1.90;;;0.98;;
43676;SDS011;29275;48.800;18.102;2022-09-09T17:12:22;2.38;;;1.02;;
43676;SDS011;29275;48.800;18.102;2022-09-09T17:15:24;2.85;;;0.80;;
43676;SDS011;29275;48.800;18.102;2022-09-09T17:18:26;1.40;;;0.95;;
43676;SDS011;29275;48.800;18.102;2022-09-09T17:21:30;2.00;;;0.95;;
43676;SDS011;29275;48.800;18.102;2022-09-09T17:24:32;4.22;;;1.05;;
43676;SDS011;29275;48.800;18.102;2022-09-09T17:27:35;2.08;;;0.93;;
43676;SDS011;29275;48.800;18.102;2022-09-09T17:30:37;2.13;;;1.00;;
43676;SDS011;29275;48.800;18.102;2022-09-09T17:33:40;2.00;;;0.80;;
43676;SDS011;29275;48.800;18.102;2022-09-09T17:36:44;4.72;;;1.25;;
43676;SDS011;29275;48.800;18.102;2022-09-09T17:39:46;2.80;;;1.05;;
43676;SDS011;29275;48.800;18.102;2022-09-09T17:42:48;1.65;;;1.02;;
43676;SDS011;29275;48.800;18.102;2022-09-09T17:45:50;2.67;;;1.30;;
43676;SDS011;29275;48.800;18.102;2022-09-09T17:48:55;2.65;;;1.08;;
43676;SDS011;29275;48.800;18.102;2022-09-09T17:51:58;4.05;;;1.58;;
43676;SDS011;29275;48.800;18.102;2022-09-09T17:55:01;2.03;;;1.40;;
43676;SDS011;29275;48.800;18.102;2022-09-09T17:58:04;4.38;;;1.33;;
43676;SDS011;29275;48.800;18.102;2022-09-09T18:01:10;2.20;;;1.13;;
43676;SDS011;29275;48.800;18.102;2022-09-09T18:04:15;2.65;;;1.27;;
43676;SDS011;29275;48.800;18.102;2022-09-09T18:07:25;2.00;;;1.02;;
43676;SDS011;29275;48.800;18.102;2022-09-09T18:10:27;2.72;;;1.63;;
43676;SDS011;29275;48.800;18.102;2022-09-09T18:13:29;5.05;;;1.42;;
43676;SDS011;29275;48.800;18.102;2022-09-09T18:16:32;2.08;;;1.08;;
43676;SDS011;29275;48.800;18.102;2022-09-09T18:19:37;3.05;;;1.58;;
43676;SDS011;29275;48.800;18.102;2022-09-09T18:22:39;2.22;;;1.30;;
43676;SDS011;29275;48.800;18.102;2022-09-09T18:25:41;2.38;;;1.00;;
43676;SDS011;29275;48.800;18.102;2022-09-09T18:28:47;1.92;;;1.17;;
43676;SDS011;29275;48.800;18.102;2022-09-09T18:31:51;2.30;;;1.30;;
43676;SDS011;29275;48.800;18.102;2022-09-09T18:34:54;2.90;;;1.05;;
43676;SDS011;29275;48.800;18.102;2022-09-09T18:37:59;2.92;;;1.60;;
43676;SDS011;29275;48.800;18.102;2022-09-09T18:41:23;2.65;;;1.20;;
43676;SDS011;29275;48.800;18.102;2022-09-09T18:44:27;4.60;;;1.30;;
43676;SDS011;29275;48.800;18.102;2022-09-09T18:47:31;1.67;;;0.77;;
43676;SDS011;29275;48.800;18.102;2022-09-09T18:50:33;2.83;;;1.15;;
43676;SDS011;29275;48.800;18.102;2022-09-09T18:53:36;3.65;;;0.95;;
43676;SDS011;29275;48.800;18.102;2022-09-09T18:56:39;3.85;;;1.00;;
43676;SDS011;29275;48.800;18.102;2022-09-09T18:59:42;2.00;;;1.00;;
43676;SDS011;29275;48.800;18.102;2022-09-09T19:02:48;5.28;;;1.02;;
43676;SDS011;29275;48.800;18.102;2022-09-09T19:06:01;1.73;;;0.95;;
43676;SDS011;29275;48.800;18.102;2022-09-09T19:09:14;2.35;;;0.70;;
43676;SDS011;29275;48.800;18.102;2022-09-09T19:12:18;1.60;;;1.00;;
43676;SDS011;29275;48.800;18.102;2022-09-09T19:15:25;6.63;;;1.00;;
43676;SDS011;29275;48.800;18.102;2022-09-09T19:18:28;3.58;;;1.00;;
43676;SDS011;29275;48.800;18.102;2022-09-09T19:21:32;1.88;;;0.75;;
43676;SDS011;29275;48.800;18.102;2022-09-09T19:24:39;2.70;;;0.90;;
43676;SDS011;29275;48.800;18.102;2022-09-09T19:27:41;4.70;;;1.10;;
43676;SDS011;29275;48.800;18.102;2022-09-09T19:30:44;2.25;;;0.85;;
43676;SDS011;29275;48.800;18.102;2022-09-09T19:33:48;2.10;;;0.90;;
43676;SDS011;29275;48.800;18.102;2022-09-09T19:36:51;1.50;;;0.70;;
43676;SDS011;29275;48.800;18.102;2022-09-09T19:39:53;2.28;;;1.00;;
43676;SDS011;29275;48.800;18.102;2022-09-09T19:43:06;4.38;;;1.33;;
43676;SDS011;29275;48.800;18.102;2022-09-09T19:46:08;2.40;;;1.00;;
43676;SDS011;29275;48.800;18.102;2022-09-09T19:49:12;2.60;;;1.20;;
43676;SDS011;29275;48.800;18.102;2022-09-09T19:52:16;1.65;;;0.93;;
43676;SDS011;29275;48.800;18.102;2022-09-09T19:55:18;1.38;;;0.80;;
43676;SDS011;29275;48.800;18.102;2022-09-09T19:58:20;3.13;;;0.95;;
43676;SDS011;29275;48.800;18.102;2022-09-09T20:01:27;6.13;;;1.20;;
43676;SDS011;29275;48.800;18.102;2022-09-09T20:04:30;3.35;;;1.02;;
43676;SDS011;29275;48.800;18.102;2022-09-09T20:07:32;5.25;;;1.10;;
43676;SDS011;29275;48.800;18.102;2022-09-09T20:10:34;2.35;;;1.08;;
43676;SDS011;29275;48.800;18.102;2022-09-09T20:13:36;2.90;;;1.10;;
43676;SDS011;29275;48.800;18.102;2022-09-09T20:16:39;8.15;;;1.10;;
43676;SDS011;29275;48.800;18.102;2022-09-09T20:19:41;3.05;;;1.25;;
43676;SDS011;29275;48.800;18.102;2022-09-09T20:22:45;3.88;;;1.20;;
43676;SDS011;29275;48.800;18.102;2022-09-09T20:25:47;12.25;;;1.30;;
43676;SDS011;29275;48.800;18.102;2022-09-09T20:28:50;2.25;;;1.20;;
43676;SDS011;29275;48.800;18.102;2022-09-09T20:31:53;2.85;;;1.13;;
43676;SDS011;29275;48.800;18.102;2022-09-09T20:34:56;4.75;;;1.50;;
43676;SDS011;29275;48.800;18.102;2022-09-09T20:37:58;1.75;;;1.15;;
43676;SDS011;29275;48.800;18.102;2022-09-09T20:41:02;2.72;;;1.38;;
43676;SDS011;29275;48.800;18.102;2022-09-09T20:44:09;2.17;;;1.27;;
43676;SDS011;29275;48.800;18.102;2022-09-09T20:47:14;4.82;;;1.65;;